Terminal Aerodrome Forecast
Issued by NWS

Home | Current Version | Previous Version | Text Only | Print | Product List | Glossary On
Versions: 1 2 3 4 5 6 7 8 9 10 11 12 13 14 15 16 17
993
FTUS42 KTBW 051511 AAC
TAFPIE
TAF AMD
KPIE 051511Z 0515/0612 14009G20KT P6SM FEW005 SCT025 SCT050
      TEMPO 0515/0517 BKN009
     FM051700 17012KT P6SM SCT015 BKN030 OVC050
     FM052000 18015G22KT 6SM -SHRA SCT025 OVC040
     FM060100 16009KT 5SM -RA VCTS SCT025CB OVC040
     FM060600 17012KT 4SM -RA BR VCTS SCT010CB OVC020=

USA.gov is the U.S. government's official web portal to all federal, state and local government web resources and services.